.
WxDataArchive / Data Records for 2007-07-23
2007-07-22 July 2007 2007-07-24

Data Records for Monday, 23 July 2007

Time	Temp	Chill	HIndex	Humid	Dewpt	 Wind 	HiWind	WindDir	Rain 	Barom 
-----	----	-----	------	-----	-----	------	------	-------	-----	----- 
00:00	61.8	61.8	61.8	76	54.1	0	0	---	0.00	30.131 
00:05	61.6	61.6	61.6	77	54.3	0	0	---	0.00	30.131 
00:10	61.6	61.6	61.6	77	54.3	0	0	---	0.00	30.129 
00:15	61.3	61.3	61.3	78	54.4	0	0	---	0.00	30.129 
00:20	61.2	61.2	61.2	78	54.3	0	0	---	0.00	30.127 
00:25	61.0	61.0	61.0	80	54.8	0	0	---	0.00	30.126 
00:30	60.7	60.7	60.7	80	54.5	0	0	---	0.00	30.127 
00:35	60.5	60.5	60.5	81	54.6	0	0	---	0.00	30.126 
00:40	60.2	60.2	60.2	81	54.3	0	0	---	0.00	30.124 
00:45	59.9	59.9	59.9	82	54.4	0	0	---	0.00	30.127 
00:50	59.8	59.8	59.8	82	54.3	0	0	---	0.00	30.127 
00:55	59.6	59.6	59.6	83	54.4	0	0	---	0.00	30.126 
01:00	59.5	59.5	59.5	83	54.3	0	0	---	0.00	30.124 
01:05	59.5	59.5	59.5	83	54.3	0	0	---	0.00	30.124 
01:10	59.3	59.3	59.3	84	54.5	0	0	---	0.00	30.124 
01:15	59.2	59.2	59.2	84	54.4	0	0	---	0.00	30.123 
01:20	59.0	59.0	59.0	84	54.2	0	0	---	0.00	30.123 
01:25	58.9	58.9	58.9	84	54.1	0	0	---	0.00	30.124 
01:30	58.7	58.7	58.7	85	54.2	0	0	---	0.00	30.124 
01:35	58.6	58.6	58.6	85	54.1	0	0	---	0.00	30.123 
01:40	58.4	58.4	58.4	85	53.9	0	0	---	0.00	30.121 
01:45	58.3	58.3	58.3	86	54.1	0	0	---	0.00	30.121 
01:50	58.1	58.1	58.1	86	53.9	0	0	---	0.00	30.117 
01:55	58.0	58.0	58.0	87	54.1	0	0	---	0.00	30.116 
02:00	57.8	57.8	57.8	87	54.0	0	0	---	0.00	30.117 
02:05	57.6	57.6	57.6	87	53.8	0	0	---	0.00	30.112 
02:10	57.5	57.5	57.5	88	54.0	0	0	---	0.00	30.111 
02:15	57.3	57.3	57.3	88	53.8	0	0	---	0.00	30.111 
02:20	57.2	57.2	57.2	88	53.7	0	0	---	0.00	30.111 
02:25	57.0	57.0	57.0	89	53.8	0	0	---	0.00	30.110 
02:30	57.0	57.0	57.0	89	53.8	0	0	---	0.00	30.109 
02:35	56.9	56.9	56.9	89	53.7	0	0	---	0.00	30.108 
02:40	56.7	56.7	56.7	89	53.5	0	0	---	0.00	30.107 
02:45	56.7	56.7	56.7	90	53.8	0	0	---	0.00	30.106 
02:50	56.6	56.6	56.6	90	53.7	0	0	---	0.00	30.106 
02:55	56.6	56.6	56.6	91	54.0	0	0	---	0.00	30.105 
03:00	56.5	56.5	56.5	91	53.9	0	0	---	0.00	30.105 
03:05	56.3	56.3	56.3	91	53.7	0	0	---	0.00	30.105 
03:10	56.3	56.3	56.3	91	53.7	0	0	---	0.00	30.105 
03:15	56.2	56.2	56.2	91	53.6	0	0	---	0.00	30.103 
03:20	56.0	56.0	56.0	92	53.7	0	0	---	0.00	30.101 
03:25	56.0	56.0	56.0	92	53.7	0	0	---	0.00	30.102 
03:30	56.0	56.0	56.0	92	53.7	0	0	---	0.00	30.101 
03:35	56.0	56.0	56.0	92	53.7	0	0	---	0.00	30.098 
03:40	55.9	55.9	55.9	92	53.6	0	0	---	0.00	30.096 
03:45	55.9	55.9	55.9	92	53.6	0	0	---	0.00	30.093 
03:50	55.7	55.7	55.7	92	53.4	0	0	---	0.00	30.093 
03:55	55.7	55.7	55.7	93	53.7	0	0	---	0.00	30.093 
04:00	55.7	55.7	55.7	93	53.7	0	0	---	0.00	30.094 
04:05	55.6	55.6	55.6	93	53.6	0	0	---	0.00	30.095 
04:10	55.4	55.4	55.4	93	53.4	0	0	---	0.00	30.095 
04:15	55.3	55.3	55.3	93	53.3	0	0	---	0.00	30.096 
04:20	55.3	55.3	55.3	93	53.3	0	0	---	0.00	30.100 
04:25	55.1	55.1	55.1	94	53.4	0	0	---	0.00	30.102 
04:30	55.1	55.1	55.1	94	53.4	0	0	---	0.00	30.103 
04:35	55.0	55.0	55.0	94	53.3	0	0	---	0.00	30.105 
04:40	55.0	55.0	55.0	94	53.3	0	0	---	0.00	30.105 
04:45	54.8	54.8	54.8	94	53.1	0	0	---	0.00	30.103 
04:50	54.8	54.8	54.8	94	53.1	0	0	---	0.00	30.108 
04:55	54.7	54.7	54.7	94	53.0	0	0	---	0.00	30.110 
05:00	54.5	54.5	54.5	95	53.1	0	0	---	0.00	30.111 
05:05	54.5	54.5	54.5	95	53.1	0	0	---	0.00	30.110 
05:10	54.5	54.5	54.5	95	53.1	0	0	---	0.00	30.110 
05:15	54.5	54.5	54.5	95	53.1	0	0	---	0.00	30.110 
05:20	54.5	54.5	54.5	95	53.1	0	0	---	0.00	30.113 
05:25	54.5	54.5	54.5	95	53.1	0	0	---	0.00	30.114 
05:30	54.5	54.5	54.5	95	53.1	0	0	---	0.00	30.114 
05:35	54.4	54.4	54.4	95	53.0	0	0	---	0.00	30.115 
05:40	54.4	54.4	54.4	96	53.3	0	0	---	0.00	30.121 
05:45	54.4	54.4	54.4	95	53.0	0	0	---	0.00	30.121 
05:50	54.2	54.2	54.2	96	53.1	0	0	---	0.00	30.122 
05:55	54.2	54.2	54.2	96	53.1	0	0	---	0.00	30.125 
06:00	54.4	54.4	54.4	96	53.3	0	0	---	0.00	30.126 
06:05	54.5	54.5	54.5	96	53.4	0	0	---	0.00	30.125 
06:10	54.7	54.7	54.7	96	53.6	0	0	---	0.00	30.124 
06:15	54.8	54.8	54.8	96	53.7	0	0	---	0.00	30.124 
06:20	55.1	55.1	55.1	96	54.0	0	0	---	0.00	30.125 
06:25	55.3	55.3	55.3	96	54.2	0	0	---	0.00	30.126 
06:30	55.7	55.7	55.7	96	54.6	0	1	68	0.00	30.126 
06:35	56.0	56.0	56.0	96	54.9	0	1	68	0.00	30.126 
06:40	56.3	56.3	56.3	96	55.2	0	0	---	0.00	30.127 
06:45	56.9	56.9	56.9	95	55.5	0	1	68	0.00	30.125 
06:50	58.0	58.0	58.0	92	55.7	0	1	68	0.00	30.125 
06:55	59.3	59.3	59.3	88	55.7	0	1	68	0.00	30.127 
07:00	60.5	60.5	60.5	83	55.3	0	3	68	0.00	30.129 
07:05	61.8	61.8	61.8	78	54.9	0	0	---	0.00	30.134 
07:10	63.1	63.1	63.1	73	54.3	1	2	68	0.00	30.136 
07:15	64.0	64.0	64.0	72	54.8	0	2	68	0.00	30.136 
07:20	64.7	64.7	64.7	72	55.5	0	2	68	0.00	30.135 
07:25	65.2	65.2	65.2	69	54.8	1	3	68	0.00	30.133 
07:30	65.6	65.6	65.6	70	55.5	1	2	112	0.00	30.133 
07:35	66.0	66.0	66.0	70	55.9	0	2	112	0.00	30.130 
07:40	65.8	65.8	65.8	70	55.7	1	3	112	0.00	30.129 
07:45	65.6	65.6	65.6	71	55.9	1	2	112	0.00	30.127 
07:50	65.8	65.8	65.8	72	56.5	0	2	112	0.00	30.121 
07:55	66.4	66.4	66.4	69	55.9	0	3	112	0.00	30.120 
08:00	67.3	67.3	67.3	68	56.4	1	3	112	0.00	30.119 
08:05	67.8	67.8	67.8	69	57.2	1	4	112	0.00	30.122 
08:10	68.4	68.4	68.4	67	57.0	1	3	112	0.00	30.121 
08:15	68.6	68.6	68.6	65	56.4	2	6	112	0.00	30.114 
08:20	68.9	68.9	68.9	65	56.6	2	4	112	0.00	30.113 
08:25	69.6	69.6	69.6	65	57.3	1	4	112	0.00	30.111 
08:30	70.1	70.1	70.1	63	56.9	1	3	90	0.00	30.109 
08:35	70.8	70.8	70.8	62	57.1	1	3	90	0.00	30.105 
08:40	71.3	71.3	71.3	61	57.1	1	3	90	0.00	30.104 
08:45	71.3	71.3	71.3	60	56.7	2	4	90	0.00	30.104 
08:50	71.5	71.5	71.5	60	56.9	1	4	112	0.00	30.104 
08:55	71.8	71.8	71.8	62	58.1	1	3	90	0.00	30.104 
09:00	72.0	72.0	72.0	62	58.3	2	4	112	0.00	30.103 
09:05	72.1	72.1	72.1	59	57.0	1	4	112	0.00	30.104 
09:10	72.3	72.3	72.3	61	58.1	1	4	112	0.00	30.104 
09:15	73.0	73.0	73.0	59	57.8	1	3	112	0.00	30.104 
09:20	73.7	73.7	73.7	62	59.9	0	3	112	0.00	30.101 
09:25	74.0	74.0	74.0	59	58.7	1	3	112	0.00	30.102 
09:30	74.6	74.6	74.6	57	58.3	1	2	112	0.00	30.102 
09:35	74.9	74.9	74.9	58	59.1	1	3	112	0.00	30.102 
09:40	75.1	75.1	77.6	53	56.8	1	4	90	0.00	30.102 
09:45	74.7	74.7	74.7	54	56.9	2	4	90	0.00	30.101 
09:50	74.9	74.9	74.9	58	59.1	1	3	90	0.00	30.101 
09:55	75.1	75.1	77.6	54	57.3	1	3	90	0.00	30.100 
10:00	75.1	75.1	77.6	53	56.8	1	3	90	0.00	30.101 
10:05	74.9	74.9	74.9	55	57.6	1	3	90	0.00	30.101 
10:10	75.3	75.3	77.6	58	59.5	0	3	90	0.00	30.102 
10:15	75.8	75.8	78.0	55	58.5	1	4	90	0.00	30.100 
10:20	75.8	75.8	78.0	53	57.4	2	4	90	0.00	30.096 
10:25	76.0	76.0	78.1	56	59.2	1	3	90	0.00	30.093 
10:30	76.1	76.1	78.1	53	57.7	1	4	90	0.00	30.092 
10:35	76.5	76.5	78.3	50	56.5	1	4	90	0.00	30.090 
10:40	76.3	76.3	78.2	52	57.4	1	4	90	0.00	30.089 
10:45	76.5	76.5	78.4	53	58.1	1	3	90	0.00	30.090 
10:50	77.0	77.0	78.6	50	56.9	1	4	112	0.00	30.089 
10:55	77.2	77.2	78.8	53	58.7	1	3	112	0.00	30.091 
11:00	77.2	77.2	78.7	51	57.6	2	6	112	0.00	30.093 
11:05	77.6	77.6	79.0	51	58.0	1	3	90	0.00	30.093 
11:10	77.7	77.7	79.1	51	58.1	1	4	90	0.00	30.091 
11:15	78.3	78.3	79.4	49	57.5	1	4	112	0.00	30.091 
11:20	78.8	78.8	79.6	46	56.2	1	4	90	0.00	30.091 
11:25	79.2	79.2	79.7	44	55.4	2	5	90	0.00	30.090 
11:30	78.8	78.8	79.5	45	55.6	2	4	112	0.00	30.090 
11:35	78.5	78.5	79.4	46	56.0	2	6	90	0.00	30.090 
11:40	78.5	78.5	79.4	46	56.0	1	3	90	0.00	30.090 
11:45	79.0	79.0	79.5	43	54.6	2	7	90	0.00	30.090 
11:50	78.8	78.8	79.4	43	54.4	2	4	90	0.00	30.091 
11:55	78.6	78.6	78.9	38	50.8	2	5	112	0.00	30.090 
12:00	78.3	78.3	78.9	40	52.0	1	3	112	0.00	30.089 
12:05	77.4	77.4	78.2	36	48.3	1	4	112	0.00	30.093 
12:10	77.6	77.6	78.4	38	50.0	1	4	112	0.00	30.091 
12:15	77.9	77.9	78.6	39	50.9	1	4	112	0.00	30.091 
12:20	78.3	78.3	78.9	40	52.0	1	3	90	0.00	30.089 
12:25	79.2	79.2	79.3	38	51.4	2	4	90	0.00	30.087 
12:30	79.4	79.4	79.6	41	53.6	1	4	112	0.00	30.085 
12:35	79.2	79.2	79.3	38	51.4	3	6	90	0.00	30.087 
12:40	78.8	78.8	79.1	39	51.7	0	3	90	0.00	30.087 
12:45	78.5	78.5	78.9	38	50.8	2	4	90	0.00	30.088 
12:50	78.3	78.3	78.9	41	52.6	1	4	112	0.00	30.086 
12:55	78.1	78.1	79.0	44	54.4	0	2	112	0.00	30.086 
13:00	77.9	77.9	78.7	41	52.3	0	2	112	0.00	30.086 
13:05	78.1	78.1	78.7	38	50.4	0	2	112	0.00	30.082 
13:10	79.0	79.0	79.2	39	51.9	0	1	112	0.00	30.076 
13:15	79.9	79.9	80.2	44	56.0	1	4	112	0.00	30.074 
13:20	80.1	80.1	79.6	35	50.0	1	4	112	0.00	30.073 
13:25	79.2	79.2	79.2	37	50.7	2	6	90	0.00	30.071 
13:30	78.8	78.8	79.1	39	51.7	1	4	90	0.00	30.069 
13:35	79.0	79.0	79.1	37	50.5	1	3	90	0.00	30.064 
13:40	79.4	79.4	79.5	39	52.3	2	5	90	0.00	30.064 
13:45	79.6	79.6	79.4	36	50.3	1	6	90	0.00	30.060 
13:50	79.8	79.8	79.4	35	49.7	1	4	90	0.00	30.058 
13:55	79.6	79.6	79.5	38	51.7	2	5	90	0.00	30.058 
14:00	79.4	79.4	79.6	41	53.6	0	2	90	0.00	30.059 
14:05	79.4	79.4	79.3	37	50.8	1	4	90	0.00	30.058 
14:10	79.4	79.4	79.2	35	49.3	0	2	90	0.00	30.054 
14:15	79.6	79.6	79.4	36	50.3	1	4	90	0.00	30.053 
14:20	79.6	79.6	79.3	35	49.5	2	4	112	0.00	30.050 
14:25	79.8	79.8	79.3	34	48.9	1	4	292	0.00	30.046 
14:30	79.6	79.6	79.3	35	49.5	1	2	0	0.00	30.046 
14:35	79.2	79.2	79.1	36	49.9	2	5	90	0.00	30.046 
14:40	79.2	79.2	79.1	35	49.2	2	5	112	0.00	30.045 
14:45	79.0	79.0	79.1	37	50.5	1	4	112	0.00	30.044 
14:50	78.6	78.6	79.0	39	51.5	1	3	90	0.00	30.043 
14:55	78.6	78.6	78.9	38	50.8	1	3	135	0.00	30.041 
15:00	79.2	79.2	79.2	37	50.7	2	5	90	0.00	30.035 
15:05	79.2	79.2	79.0	34	48.4	2	4	112	0.00	30.037 
15:10	79.4	79.4	79.2	35	49.3	2	4	90	0.00	30.036 
15:15	79.4	79.4	79.2	36	50.1	2	4	90	0.00	30.032 
15:20	79.2	79.2	79.1	36	49.9	1	4	90	0.00	30.032 
15:25	78.8	78.8	79.0	37	50.3	1	3	90	0.00	30.032 
15:30	78.8	78.8	79.0	37	50.3	2	4	90	0.00	30.032 
15:35	79.2	79.2	79.1	35	49.2	2	6	90	0.00	30.031 
15:40	79.8	79.8	79.3	34	48.9	1	4	112	0.00	30.029 
15:45	80.3	80.3	80.0	38	52.4	2	4	90	0.00	30.029 
15:50	80.1	80.1	79.6	35	50.0	2	4	90	0.00	30.028 
15:55	79.6	79.6	79.3	35	49.5	1	4	112	0.00	30.029 
16:00	79.2	79.2	79.0	34	48.4	2	5	90	0.00	30.030 
16:05	79.2	79.2	78.9	33	47.6	1	3	135	0.00	30.030 
16:10	78.8	78.8	78.8	35	48.8	1	4	90	0.00	30.029 
16:15	79.2	79.2	78.9	33	47.6	1	4	90	0.00	30.027 
16:20	79.0	79.0	79.0	35	49.0	1	2	112	0.00	30.026 
16:25	78.8	78.8	78.8	34	48.0	0	2	112	0.00	30.025 
16:30	78.5	78.5	78.9	39	51.5	1	2	112	0.00	30.025 
16:35	78.8	78.8	78.9	36	49.6	2	4	90	0.00	30.026 
16:40	79.4	79.4	79.0	33	47.8	0	2	112	0.00	30.025 
16:45	79.4	79.4	79.3	37	50.8	2	5	112	0.00	30.026 
16:50	78.8	78.8	78.8	35	48.8	1	3	90	0.00	30.024 
16:55	78.5	78.5	78.8	37	50.0	1	5	90	0.00	30.021 
17:00	78.3	78.3	78.7	37	49.9	1	3	90	0.00	30.020 
17:05	78.3	78.3	78.6	36	49.1	1	3	90	0.00	30.020 
17:10	78.1	78.1	78.5	36	48.9	1	2	90	0.00	30.019 
17:15	78.1	78.1	78.5	36	48.9	0	2	90	0.00	30.017 
17:20	77.9	77.9	78.6	39	50.9	0	2	90	0.00	30.016 
17:25	78.1	78.1	78.8	41	52.5	0	2	90	0.00	30.014 
17:30	78.3	78.3	78.9	40	52.0	1	3	90	0.00	30.014 
17:35	78.1	78.1	78.7	39	51.1	1	3	90	0.00	30.010 
17:40	77.9	77.9	78.7	41	52.3	1	2	90	0.00	30.010 
17:45	77.7	77.7	78.7	42	52.8	0	2	90	0.00	30.011 
17:50	77.7	77.7	78.6	40	51.4	0	2	90	0.00	30.011 
17:55	77.7	77.7	78.6	41	52.1	0	2	90	0.00	30.008 
18:00	77.6	77.6	78.6	42	52.7	0	2	90	0.00	30.007 
18:05	77.4	77.4	78.6	43	53.1	0	1	90	0.00	30.001 
18:10	77.2	77.2	78.5	43	52.9	0	2	90	0.00	30.000 
18:15	77.0	77.0	78.3	42	52.1	0	3	90	0.00	30.002 
18:20	77.0	77.0	78.4	43	52.8	0	1	90	0.00	30.001 
18:25	77.0	77.0	78.4	43	52.8	0	2	90	0.00	30.003 
18:30	77.0	77.0	78.3	42	52.1	0	3	90	0.00	30.001 
18:35	77.2	77.2	78.5	43	52.9	0	2	90	0.00	30.002 
18:40	77.0	77.0	78.4	45	54.0	0	2	90	0.00	30.002 
18:45	76.8	76.8	78.3	43	52.6	0	1	90	0.00	30.000 
18:50	76.7	76.7	78.3	44	53.1	0	1	90	0.00	30.004 
18:55	76.5	76.5	78.1	43	52.3	0	2	90	0.00	30.002 
19:00	76.5	76.5	78.2	45	53.6	0	1	90	0.00	30.000 
19:05	76.5	76.5	78.2	45	53.6	0	0	---	0.00	29.999 
19:10	76.3	76.3	78.0	43	52.1	0	1	90	0.00	30.003 
19:15	76.3	76.3	78.1	46	54.0	0	1	90	0.00	30.001 
19:20	76.1	76.1	77.9	42	51.3	0	2	90	0.00	30.003 
19:25	76.1	76.1	78.0	46	53.8	0	1	90	0.00	30.001 
19:30	76.1	76.1	78.0	45	53.2	0	0	---	0.00	30.000 
19:35	76.0	76.0	78.0	46	53.7	0	1	90	0.00	30.002 
19:40	75.8	75.8	78.0	48	54.7	0	1	90	0.00	29.998 
19:45	75.6	75.6	77.9	49	55.1	0	0	---	0.00	29.996 
19:50	75.3	75.3	77.7	50	55.4	0	0	---	0.00	29.997 
19:55	74.7	74.7	74.7	50	54.8	0	0	---	0.00	29.999 
20:00	74.2	74.2	74.2	50	54.3	0	0	---	0.00	29.999 
20:05	73.9	73.9	73.9	51	54.6	0	0	---	0.00	29.992 
20:10	73.3	73.3	73.3	53	55.1	0	0	---	0.00	29.996 
20:15	73.0	73.0	73.0	53	54.8	0	0	---	0.00	29.997 
20:20	72.5	72.5	72.5	54	54.9	0	0	---	0.00	29.998 
20:25	72.1	72.1	72.1	55	55.0	0	0	---	0.00	29.997 
20:30	71.6	71.6	71.6	57	55.5	0	0	---	0.00	30.000 
20:35	71.1	71.1	71.1	57	55.1	0	0	---	0.00	29.999 
20:40	70.6	70.6	70.6	58	55.1	0	0	---	0.00	30.001 
20:45	70.1	70.1	70.1	59	55.1	0	0	---	0.00	30.000 
20:50	69.8	69.8	69.8	60	55.3	0	0	---	0.00	30.001 
20:55	69.4	69.4	69.4	61	55.4	0	0	---	0.00	30.004 
21:00	69.1	69.1	69.1	62	55.5	0	0	---	0.00	30.004 
21:05	68.9	68.9	68.9	62	55.3	0	0	---	0.00	30.001 
21:10	68.6	68.6	68.6	63	55.5	0	0	---	0.00	30.002 
21:15	68.4	68.4	68.4	65	56.2	0	0	---	0.00	30.006 
21:20	68.3	68.3	68.3	65	56.1	0	0	---	0.00	30.007 
21:25	68.1	68.1	68.1	66	56.3	0	0	---	0.00	30.007 
21:30	67.8	67.8	67.8	68	56.8	0	0	---	0.00	30.010 
21:35	67.6	67.6	67.6	69	57.1	0	0	---	0.00	30.010 
21:40	67.6	67.6	67.6	70	57.5	0	0	---	0.00	30.011 
21:45	67.3	67.3	67.3	70	57.2	0	0	---	0.00	30.012 
21:50	67.1	67.1	67.1	69	56.6	0	0	---	0.00	30.013 
21:55	66.9	66.9	66.9	70	56.8	0	0	---	0.00	30.016 
22:00	66.8	66.8	66.8	71	57.1	0	0	---	0.00	30.017 
22:05	66.8	66.8	66.8	72	57.5	0	0	---	0.00	30.015 
22:10	66.9	66.9	66.9	73	58.0	0	0	---	0.00	30.017 
22:15	66.9	66.9	66.9	73	58.0	0	0	---	0.00	30.016 
22:20	66.9	66.9	66.9	73	58.0	0	0	---	0.00	30.016 
22:25	66.9	66.9	66.9	73	58.0	0	0	---	0.00	30.016 
22:30	66.9	66.9	66.9	73	58.0	0	0	---	0.00	30.016 
22:35	66.9	66.9	66.9	73	58.0	0	0	---	0.00	30.017 
22:40	66.9	66.9	66.9	74	58.3	0	0	---	0.00	30.012 
22:45	66.8	66.8	66.8	74	58.2	0	0	---	0.00	30.010 
22:50	66.8	66.8	66.8	74	58.2	0	0	---	0.00	30.008 
22:55	66.6	66.6	66.6	74	58.0	0	0	---	0.00	30.007 
23:00	66.6	66.6	66.6	74	58.0	0	0	---	0.00	30.007 
23:05	66.4	66.4	66.4	74	57.9	0	0	---	0.00	30.006 
23:10	66.4	66.4	66.4	75	58.2	0	0	---	0.00	30.005 
23:15	66.4	66.4	66.4	75	58.2	0	0	---	0.00	30.004 
23:20	66.3	66.3	66.3	75	58.1	0	0	---	0.00	30.004 
23:25	66.1	66.1	66.1	75	57.9	0	0	---	0.00	30.004 
23:30	66.0	66.0	66.0	76	58.2	0	0	---	0.00	30.003 
23:35	65.8	65.8	65.8	76	58.0	0	0	---	0.00	30.001 
23:40	65.6	65.6	65.6	77	58.2	0	0	---	0.00	29.995 
23:45	65.5	65.5	65.5	77	58.1	0	0	---	0.00	29.993 
23:50	65.3	65.3	65.3	77	57.9	0	0	---	0.00	29.994 
23:55	65.2	65.2	65.2	77	57.8	0	0	---	0.00	29.996 

CoCoRaHS
IN-AL-39
A2 Web Hosting
Creative Commons License
GoDaddy
Look for:

loaded 2017-12-12 15:06:02 • last modified 2010-11-18 10:43:29
Privacy PolicyDisclaimer
• wx.awcolley.com is powered by PmWiki v.2002016 •
• all content (unless otherwise noted) © 2017 A W Colley